Tembisa, South Africa
Current Conditions -  °F | °C
As of 10:00 PM on Tuesday 21 Oct 2014 (Local Time) from FAOR Reporting Station
Clear Clear  
Wind Chill: 66°   Ceiling: Unl
Heat Index: 66°   Visibility: 6mi
Dew Point: 46°   Wind: 14mph
Humidity: 49%   Direction: 360°N
Pressure: 30.3"   Gusts: NA
Location:  25.99°S, 28.22°E
Report Text: FAOR 212000Z 36012KT 310V020 CAVOK 19/08 Q1026 NOSIG
Loading
Personal Weather Stations






























Interactive Weather Map
Tropical Storm Tracking
New forecast layout! Learn more

10-Day Weather Forecast

Advertisements
Track Severe Weather on mobile